sensor_id;sensor_type;location;lat;lon;timestamp;pressure;altitude;pressure_sealevel;temperature;humidity
10668;BME280;5382;42.136;24.796;2023-02-28T00:01:19;100438.44;;;11.23;100.00
10668;BME280;5382;42.136;24.796;2023-02-28T00:03:47;100443.22;;;11.18;100.00
10668;BME280;5382;42.136;24.796;2023-02-28T00:06:14;100450.94;;;11.21;100.00
10668;BME280;5382;42.136;24.796;2023-02-28T00:08:41;100449.34;;;11.19;100.00
10668;BME280;5382;42.136;24.796;2023-02-28T00:11:10;100435.91;;;11.22;100.00
10668;BME280;5382;42.136;24.796;2023-02-28T00:13:40;100444.38;;;11.27;100.00
10668;BME280;5382;42.136;24.796;2023-02-28T00:16:09;100449.38;;;11.31;100.00
10668;BME280;5382;42.136;24.796;2023-02-28T00:18:36;100455.97;;;11.39;100.00
10668;BME280;5382;42.136;24.796;2023-02-28T00:21:03;100451.63;;;11.38;100.00
10668;BME280;5382;42.136;24.796;2023-02-28T00:23:30;100458.94;;;11.34;100.00
10668;BME280;5382;42.136;24.796;2023-02-28T00:25:57;100450.66;;;11.26;100.00
10668;BME280;5382;42.136;24.796;2023-02-28T00:28:24;100435.38;;;11.29;100.00
10668;BME280;5382;42.136;24.796;2023-02-28T00:30:52;100443.03;;;11.34;100.00
10668;BME280;5382;42.136;24.796;2023-02-28T00:33:19;100431.81;;;11.43;100.00
10668;BME280;5382;42.136;24.796;2023-02-28T00:35:46;100428.53;;;11.40;100.00
10668;BME280;5382;42.136;24.796;2023-02-28T00:38:14;100429.25;;;11.29;100.00
10668;BME280;5382;42.136;24.796;2023-02-28T00:40:41;100392.28;;;11.00;100.00
10668;BME280;5382;42.136;24.796;2023-02-28T00:43:08;100306.22;;;10.53;100.00
10668;BME280;5382;42.136;24.796;2023-02-28T00:45:35;100431.56;;;11.21;100.00
10668;BME280;5382;42.136;24.796;2023-02-28T00:48:03;100413.78;;;10.96;100.00
10668;BME280;5382;42.136;24.796;2023-02-28T00:50:31;100457.72;;;11.25;100.00
10668;BME280;5382;42.136;24.796;2023-02-28T00:52:58;100453.19;;;11.27;100.00
10668;BME280;5382;42.136;24.796;2023-02-28T00:55:25;100390.91;;;11.07;100.00
10668;BME280;5382;42.136;24.796;2023-02-28T00:57:51;100421.81;;;11.21;100.00
10668;BME280;5382;42.136;24.796;2023-02-28T01:00:19;100442.41;;;11.43;100.00
10668;BME280;5382;42.136;24.796;2023-02-28T01:02:45;100458.97;;;11.47;100.00
10668;BME280;5382;42.136;24.796;2023-02-28T01:05:14;100436.78;;;11.35;100.00
10668;BME280;5382;42.136;24.796;2023-02-28T01:07:41;100462.28;;;11.63;100.00
10668;BME280;5382;42.136;24.796;2023-02-28T01:10:09;100432.69;;;11.44;100.00
10668;BME280;5382;42.136;24.796;2023-02-28T01:12:36;100466.44;;;11.67;100.00
10668;BME280;5382;42.136;24.796;2023-02-28T01:15:03;100470.88;;;11.67;100.00
10668;BME280;5382;42.136;24.796;2023-02-28T01:17:30;100473.44;;;11.68;100.00
10668;BME280;5382;42.136;24.796;2023-02-28T01:19:57;100476.16;;;11.67;100.00
10668;BME280;5382;42.136;24.796;2023-02-28T01:22:25;100476.72;;;11.72;100.00
10668;BME280;5382;42.136;24.796;2023-02-28T01:24:52;100473.66;;;11.78;100.00
10668;BME280;5382;42.136;24.796;2023-02-28T01:27:19;100477.78;;;11.82;100.00
10668;BME280;5382;42.136;24.796;2023-02-28T01:29:46;100476.56;;;11.88;100.00
10668;BME280;5382;42.136;24.796;2023-02-28T01:32:12;100482.59;;;11.90;100.00
10668;BME280;5382;42.136;24.796;2023-02-28T01:34:39;100485.91;;;11.93;100.00
10668;BME280;5382;42.136;24.796;2023-02-28T01:37:06;100484.41;;;11.89;100.00
10668;BME280;5382;42.136;24.796;2023-02-28T01:39:34;100496.84;;;12.02;100.00
10668;BME280;5382;42.136;24.796;2023-02-28T01:42:01;100494.19;;;11.89;100.00
10668;BME280;5382;42.136;24.796;2023-02-28T01:45:01;100504.13;;;11.85;100.00
10668;BME280;5382;42.136;24.796;2023-02-28T01:47:31;100488.06;;;11.74;100.00
10668;BME280;5382;42.136;24.796;2023-02-28T01:49:59;100512.38;;;11.81;100.00
10668;BME280;5382;42.136;24.796;2023-02-28T01:52:28;100515.88;;;11.81;100.00
10668;BME280;5382;42.136;24.796;2023-02-28T01:54:59;100523.75;;;11.83;100.00
10668;BME280;5382;42.136;24.796;2023-02-28T01:57:30;100524.97;;;11.77;100.00
10668;BME280;5382;42.136;24.796;2023-02-28T02:00:05;100506.88;;;11.44;100.00
10668;BME280;5382;42.136;24.796;2023-02-28T02:02:36;100444.53;;;10.84;100.00
10668;BME280;5382;42.136;24.796;2023-02-28T02:05:05;100461.44;;;10.81;100.00
10668;BME280;5382;42.136;24.796;2023-02-28T02:07:35;100540.72;;;11.26;100.00
10668;BME280;5382;42.136;24.796;2023-02-28T02:10:10;100527.97;;;11.18;100.00
10668;BME280;5382;42.136;24.796;2023-02-28T02:12:58;100536.00;;;11.17;100.00
10668;BME280;5382;42.136;24.796;2023-02-28T02:15:33;100534.47;;;11.12;100.00
10668;BME280;5382;42.136;24.796;2023-02-28T02:18:06;100531.69;;;11.01;100.00
10668;BME280;5382;42.136;24.796;2023-02-28T02:24:03;100535.50;;;10.68;100.00
10668;BME280;5382;42.136;24.796;2023-02-28T02:27:06;100532.56;;;10.44;100.00
10668;BME280;5382;42.136;24.796;2023-02-28T02:32:54;100544.78;;;10.17;100.00
10668;BME280;5382;42.136;24.796;2023-02-28T02:35:30;100533.41;;;9.86;100.00
10668;BME280;5382;42.136;24.796;2023-02-28T02:38:03;100559.88;;;10.00;100.00
10668;BME280;5382;42.136;24.796;2023-02-28T02:40:37;100560.06;;;9.97;100.00
10668;BME280;5382;42.136;24.796;2023-02-28T02:43:07;100550.78;;;9.90;100.00
10668;BME280;5382;42.136;24.796;2023-02-28T02:45:38;100558.03;;;9.87;100.00
10668;BME280;5382;42.136;24.796;2023-02-28T02:48:09;100562.97;;;9.93;100.00
10668;BME280;5382;42.136;24.796;2023-02-28T02:50:43;100553.53;;;9.73;100.00
10668;BME280;5382;42.136;24.796;2023-02-28T02:53:12;100558.22;;;9.68;100.00
10668;BME280;5382;42.136;24.796;2023-02-28T02:55:44;100586.56;;;9.66;100.00
10668;BME280;5382;42.136;24.796;2023-02-28T02:58:15;100547.63;;;9.53;100.00
10668;BME280;5382;42.136;24.796;2023-02-28T03:00:46;100580.84;;;9.73;100.00
10668;BME280;5382;42.136;24.796;2023-02-28T03:03:16;100592.44;;;9.71;100.00
10668;BME280;5382;42.136;24.796;2023-02-28T03:05:48;100593.53;;;9.67;100.00
10668;BME280;5382;42.136;24.796;2023-02-28T03:08:16;100565.25;;;9.37;100.00
10668;BME280;5382;42.136;24.796;2023-02-28T03:10:44;100597.81;;;9.53;100.00
10668;BME280;5382;42.136;24.796;2023-02-28T03:13:24;100594.22;;;9.54;100.00
10668;BME280;5382;42.136;24.796;2023-02-28T03:19:06;100603.84;;;9.71;100.00
10668;BME280;5382;42.136;24.796;2023-02-28T03:21:43;100600.09;;;9.59;100.00
10668;BME280;5382;42.136;24.796;2023-02-28T03:24:12;100615.19;;;9.73;100.00
10668;BME280;5382;42.136;24.796;2023-02-28T03:26:43;100615.00;;;9.76;100.00
10668;BME280;5382;42.136;24.796;2023-02-28T03:29:16;100617.72;;;9.75;100.00
10668;BME280;5382;42.136;24.796;2023-02-28T03:31:50;100624.88;;;9.73;100.00
10668;BME280;5382;42.136;24.796;2023-02-28T03:34:22;100632.16;;;9.69;100.00
10668;BME280;5382;42.136;24.796;2023-02-28T03:36:54;100608.13;;;9.58;100.00
10668;BME280;5382;42.136;24.796;2023-02-28T03:39:27;100619.78;;;9.70;100.00
10668;BME280;5382;42.136;24.796;2023-02-28T03:41:58;100587.75;;;9.60;100.00
10668;BME280;5382;42.136;24.796;2023-02-28T03:44:29;100615.84;;;9.77;100.00
10668;BME280;5382;42.136;24.796;2023-02-28T03:46:59;100620.38;;;9.75;100.00
10668;BME280;5382;42.136;24.796;2023-02-28T03:49:30;100614.16;;;9.76;100.00
10668;BME280;5382;42.136;24.796;2023-02-28T03:52:03;100632.06;;;9.87;100.00
10668;BME280;5382;42.136;24.796;2023-02-28T03:54:32;100554.69;;;9.37;100.00
10668;BME280;5382;42.136;24.796;2023-02-28T03:57:07;100597.28;;;9.63;100.00
10668;BME280;5382;42.136;24.796;2023-02-28T03:59:38;100634.59;;;9.88;100.00
10668;BME280;5382;42.136;24.796;2023-02-28T04:02:07;100594.78;;;9.75;100.00
10668;BME280;5382;42.136;24.796;2023-02-28T04:04:34;100643.44;;;10.03;100.00
10668;BME280;5382;42.136;24.796;2023-02-28T04:07:05;100645.75;;;9.93;100.00
10668;BME280;5382;42.136;24.796;2023-02-28T04:09:32;100633.09;;;9.84;100.00
10668;BME280;5382;42.136;24.796;2023-02-28T04:11:59;100651.81;;;9.95;100.00
10668;BME280;5382;42.136;24.796;2023-02-28T04:14:26;100663.41;;;9.93;100.00
10668;BME280;5382;42.136;24.796;2023-02-28T04:16:52;100653.53;;;9.80;100.00
10668;BME280;5382;42.136;24.796;2023-02-28T04:19:20;100668.03;;;9.89;100.00
10668;BME280;5382;42.136;24.796;2023-02-28T04:21:48;100682.53;;;9.82;100.00
10668;BME280;5382;42.136;24.796;2023-02-28T04:24:18;100634.81;;;9.53;100.00
10668;BME280;5382;42.136;24.796;2023-02-28T04:26:46;100677.50;;;9.77;100.00
10668;BME280;5382;42.136;24.796;2023-02-28T04:29:18;100672.13;;;9.79;100.00
10668;BME280;5382;42.136;24.796;2023-02-28T04:31:45;100672.91;;;9.81;100.00
10668;BME280;5382;42.136;24.796;2023-02-28T04:34:12;100683.56;;;9.79;100.00
10668;BME280;5382;42.136;24.796;2023-02-28T04:36:39;100635.72;;;9.52;100.00
10668;BME280;5382;42.136;24.796;2023-02-28T04:39:06;100670.16;;;9.82;100.00
10668;BME280;5382;42.136;24.796;2023-02-28T04:41:34;100666.50;;;9.85;100.00
10668;BME280;5382;42.136;24.796;2023-02-28T04:44:01;100656.75;;;9.86;100.00
10668;BME280;5382;42.136;24.796;2023-02-28T04:46:27;100675.34;;;10.00;100.00
10668;BME280;5382;42.136;24.796;2023-02-28T04:48:55;100682.16;;;9.88;100.00
10668;BME280;5382;42.136;24.796;2023-02-28T04:51:23;100679.13;;;9.80;100.00
10668;BME280;5382;42.136;24.796;2023-02-28T04:53:50;100675.63;;;9.79;100.00
10668;BME280;5382;42.136;24.796;2023-02-28T04:56:17;100665.72;;;9.67;100.00
10668;BME280;5382;42.136;24.796;2023-02-28T04:58:46;100670.34;;;9.79;100.00
10668;BME280;5382;42.136;24.796;2023-02-28T05:01:22;100682.97;;;9.74;100.00
10668;BME280;5382;42.136;24.796;2023-02-28T05:03:50;100690.03;;;9.74;100.00
10668;BME280;5382;42.136;24.796;2023-02-28T05:06:18;100709.31;;;9.76;100.00
10668;BME280;5382;42.136;24.796;2023-02-28T05:08:45;100704.34;;;9.70;100.00
10668;BME280;5382;42.136;24.796;2023-02-28T05:11:16;100716.03;;;9.66;100.00
10668;BME280;5382;42.136;24.796;2023-02-28T05:13:43;100644.00;;;9.30;100.00
10668;BME280;5382;42.136;24.796;2023-02-28T05:16:12;100714.44;;;9.63;100.00
10668;BME280;5382;42.136;24.796;2023-02-28T05:18:39;100708.19;;;9.64;100.00
10668;BME280;5382;42.136;24.796;2023-02-28T05:21:12;100718.34;;;9.56;100.00
10668;BME280;5382;42.136;24.796;2023-02-28T05:23:49;100715.28;;;9.64;100.00
10668;BME280;5382;42.136;24.796;2023-02-28T05:26:16;100716.28;;;9.61;100.00
10668;BME280;5382;42.136;24.796;2023-02-28T05:28:43;100726.88;;;9.61;100.00
10668;BME280;5382;42.136;24.796;2023-02-28T05:31:12;100716.94;;;9.49;100.00
10668;BME280;5382;42.136;24.796;2023-02-28T05:33:39;100733.22;;;9.57;100.00
10668;BME280;5382;42.136;24.796;2023-02-28T05:36:06;100722.41;;;9.46;100.00
10668;BME280;5382;42.136;24.796;2023-02-28T05:38:33;100740.47;;;9.37;100.00
10668;BME280;5382;42.136;24.796;2023-02-28T05:41:04;100748.13;;;9.42;100.00
10668;BME280;5382;42.136;24.796;2023-02-28T05:43:31;100673.53;;;8.88;100.00
10668;BME280;5382;42.136;24.796;2023-02-28T05:45:57;100769.50;;;9.37;100.00
10668;BME280;5382;42.136;24.796;2023-02-28T05:48:26;100747.44;;;9.38;100.00
10668;BME280;5382;42.136;24.796;2023-02-28T05:50:52;100754.41;;;9.39;100.00
10668;BME280;5382;42.136;24.796;2023-02-28T05:53:20;100751.13;;;9.52;100.00
10668;BME280;5382;42.136;24.796;2023-02-28T05:55:47;100760.00;;;9.51;100.00
10668;BME280;5382;42.136;24.796;2023-02-28T05:58:14;100749.59;;;9.48;100.00
10668;BME280;5382;42.136;24.796;2023-02-28T06:00:40;100754.19;;;9.44;100.00
10668;BME280;5382;42.136;24.796;2023-02-28T06:03:08;100759.06;;;9.52;100.00
10668;BME280;5382;42.136;24.796;2023-02-28T06:05:37;100764.09;;;9.56;100.00
10668;BME280;5382;42.136;24.796;2023-02-28T06:08:04;100778.50;;;9.51;100.00
10668;BME280;5382;42.136;24.796;2023-02-28T06:10:32;100766.53;;;9.44;100.00
10668;BME280;5382;42.136;24.796;2023-02-28T06:12:59;100726.63;;;9.16;100.00
10668;BME280;5382;42.136;24.796;2023-02-28T06:15:28;100738.53;;;9.24;100.00
10668;BME280;5382;42.136;24.796;2023-02-28T06:17:55;100796.69;;;9.39;100.00
10668;BME280;5382;42.136;24.796;2023-02-28T06:20:23;100781.31;;;9.48;100.00
10668;BME280;5382;42.136;24.796;2023-02-28T06:22:51;100780.53;;;9.46;100.00
10668;BME280;5382;42.136;24.796;2023-02-28T06:25:19;100764.53;;;9.31;100.00
10668;BME280;5382;42.136;24.796;2023-02-28T06:27:46;100783.34;;;9.43;100.00
10668;BME280;5382;42.136;24.796;2023-02-28T06:30:14;100777.78;;;9.47;100.00
10668;BME280;5382;42.136;24.796;2023-02-28T06:32:41;100779.16;;;9.54;100.00
10668;BME280;5382;42.136;24.796;2023-02-28T06:35:08;100780.69;;;9.43;100.00
10668;BME280;5382;42.136;24.796;2023-02-28T06:37:35;100753.34;;;9.26;100.00
10668;BME280;5382;42.136;24.796;2023-02-28T06:40:04;100792.81;;;9.63;100.00
10668;BME280;5382;42.136;24.796;2023-02-28T06:42:32;100788.41;;;9.63;100.00
10668;BME280;5382;42.136;24.796;2023-02-28T06:44:59;100786.69;;;9.62;100.00
10668;BME280;5382;42.136;24.796;2023-02-28T06:47:30;100720.03;;;9.24;100.00
10668;BME280;5382;42.136;24.796;2023-02-28T06:49:57;100786.88;;;9.75;100.00
10668;BME280;5382;42.136;24.796;2023-02-28T06:52:23;100785.88;;;9.77;100.00
10668;BME280;5382;42.136;24.796;2023-02-28T06:54:50;100790.78;;;9.68;100.00
10668;BME280;5382;42.136;24.796;2023-02-28T06:57:27;100792.41;;;9.70;100.00
10668;BME280;5382;42.136;24.796;2023-02-28T06:59:56;100623.75;;;8.64;100.00
10668;BME280;5382;42.136;24.796;2023-02-28T07:02:23;100797.44;;;9.75;100.00
10668;BME280;5382;42.136;24.796;2023-02-28T07:04:50;100796.78;;;9.87;100.00
10668;BME280;5382;42.136;24.796;2023-02-28T07:07:17;100777.25;;;9.74;100.00
10668;BME280;5382;42.136;24.796;2023-02-28T07:09:44;100800.88;;;9.93;100.00
10668;BME280;5382;42.136;24.796;2023-02-28T07:12:11;100800.28;;;10.03;100.00
10668;BME280;5382;42.136;24.796;2023-02-28T07:14:39;100801.56;;;9.96;100.00
10668;BME280;5382;42.136;24.796;2023-02-28T07:17:07;100804.13;;;9.98;100.00
10668;BME280;5382;42.136;24.796;2023-02-28T07:19:34;100790.97;;;9.96;100.00
10668;BME280;5382;42.136;24.796;2023-02-28T07:22:00;100805.56;;;10.03;100.00
10668;BME280;5382;42.136;24.796;2023-02-28T07:24:28;100733.16;;;9.58;100.00
10668;BME280;5382;42.136;24.796;2023-02-28T07:26:55;100805.94;;;9.97;100.00
10668;BME280;5382;42.136;24.796;2023-02-28T07:29:22;100811.91;;;10.01;100.00
10668;BME280;5382;42.136;24.796;2023-02-28T07:31:50;100810.03;;;10.03;100.00
10668;BME280;5382;42.136;24.796;2023-02-28T07:34:18;100823.91;;;9.91;100.00
10668;BME280;5382;42.136;24.796;2023-02-28T07:36:45;100828.16;;;9.77;100.00
10668;BME280;5382;42.136;24.796;2023-02-28T07:39:12;100824.91;;;9.72;100.00
10668;BME280;5382;42.136;24.796;2023-02-28T07:41:39;100823.44;;;9.67;100.00
10668;BME280;5382;42.136;24.796;2023-02-28T07:44:09;100819.13;;;9.81;100.00
10668;BME280;5382;42.136;24.796;2023-02-28T07:46:36;100824.66;;;9.77;100.00
10668;BME280;5382;42.136;24.796;2023-02-28T07:49:05;100815.13;;;9.90;100.00
10668;BME280;5382;42.136;24.796;2023-02-28T07:51:32;100809.94;;;10.04;100.00
10668;BME280;5382;42.136;24.796;2023-02-28T07:53:58;100803.69;;;9.90;100.00
10668;BME280;5382;42.136;24.796;2023-02-28T07:56:25;100802.75;;;9.91;100.00
10668;BME280;5382;42.136;24.796;2023-02-28T07:58:52;100813.56;;;9.70;100.00
10668;BME280;5382;42.136;24.796;2023-02-28T08:01:19;100824.81;;;9.74;100.00
10668;BME280;5382;42.136;24.796;2023-02-28T08:03:47;100823.63;;;9.79;100.00
10668;BME280;5382;42.136;24.796;2023-02-28T08:06:19;100808.66;;;9.63;100.00
10668;BME280;5382;42.136;24.796;2023-02-28T08:08:46;100823.84;;;9.59;100.00
10668;BME280;5382;42.136;24.796;2023-02-28T08:11:14;100825.41;;;9.63;100.00
10668;BME280;5382;42.136;24.796;2023-02-28T08:13:42;100804.28;;;9.63;100.00
10668;BME280;5382;42.136;24.796;2023-02-28T08:16:09;100770.88;;;9.45;100.00
10668;BME280;5382;42.136;24.796;2023-02-28T08:18:36;100813.75;;;9.83;100.00
10668;BME280;5382;42.136;24.796;2023-02-28T08:21:06;100831.75;;;9.92;100.00
10668;BME280;5382;42.136;24.796;2023-02-28T08:23:34;100827.25;;;10.10;100.00
10668;BME280;5382;42.136;24.796;2023-02-28T08:26:01;100810.44;;;10.11;100.00
10668;BME280;5382;42.136;24.796;2023-02-28T08:28:28;100821.31;;;10.22;100.00
10668;BME280;5382;42.136;24.796;2023-02-28T08:30:55;100809.53;;;10.12;100.00
10668;BME280;5382;42.136;24.796;2023-02-28T08:33:22;100814.38;;;10.20;100.00
10668;BME280;5382;42.136;24.796;2023-02-28T08:35:52;100810.44;;;10.11;100.00
10668;BME280;5382;42.136;24.796;2023-02-28T08:38:20;100826.31;;;9.95;100.00
10668;BME280;5382;42.136;24.796;2023-02-28T08:40:48;100808.81;;;10.09;100.00
10668;BME280;5382;42.136;24.796;2023-02-28T08:43:15;100827.50;;;10.21;100.00
10668;BME280;5382;42.136;24.796;2023-02-28T08:45:42;100824.88;;;10.21;100.00
10668;BME280;5382;42.136;24.796;2023-02-28T08:48:09;100827.50;;;10.21;100.00
10668;BME280;5382;42.136;24.796;2023-02-28T08:50:35;100823.94;;;10.22;100.00
10668;BME280;5382;42.136;24.796;2023-02-28T08:53:02;100835.44;;;10.21;100.00
10668;BME280;5382;42.136;24.796;2023-02-28T08:55:29;100836.41;;;10.04;100.00
10668;BME280;5382;42.136;24.796;2023-02-28T08:57:57;100834.78;;;10.18;100.00
10668;BME280;5382;42.136;24.796;2023-02-28T09:00:24;100837.28;;;10.37;100.00
10668;BME280;5382;42.136;24.796;2023-02-28T09:02:51;100843.25;;;10.56;100.00
10668;BME280;5382;42.136;24.796;2023-02-28T09:05:18;100824.16;;;10.35;100.00
10668;BME280;5382;42.136;24.796;2023-02-28T09:07:45;100839.00;;;10.54;100.00
10668;BME280;5382;42.136;24.796;2023-02-28T09:10:11;100833.94;;;10.65;100.00
10668;BME280;5382;42.136;24.796;2023-02-28T09:12:38;100837.25;;;10.68;100.00
10668;BME280;5382;42.136;24.796;2023-02-28T09:15:08;100835.75;;;10.48;100.00
10668;BME280;5382;42.136;24.796;2023-02-28T09:17:34;100840.63;;;10.40;100.00
10668;BME280;5382;42.136;24.796;2023-02-28T09:20:01;100832.84;;;10.37;100.00
10668;BME280;5382;42.136;24.796;2023-02-28T09:22:28;100766.44;;;9.94;100.00
10668;BME280;5382;42.136;24.796;2023-02-28T09:24:55;100832.75;;;10.39;100.00
10668;BME280;5382;42.136;24.796;2023-02-28T09:27:22;100825.78;;;10.38;100.00
10668;BME280;5382;42.136;24.796;2023-02-28T09:29:49;100824.66;;;10.42;100.00
10668;BME280;5382;42.136;24.796;2023-02-28T09:32:17;100819.34;;;10.42;100.00
10668;BME280;5382;42.136;24.796;2023-02-28T09:34:44;100817.13;;;10.34;100.00
10668;BME280;5382;42.136;24.796;2023-02-28T09:37:11;100788.19;;;10.15;100.00
10668;BME280;5382;42.136;24.796;2023-02-28T09:39:37;100794.47;;;10.30;100.00
10668;BME280;5382;42.136;24.796;2023-02-28T09:42:05;100807.56;;;10.32;100.00
10668;BME280;5382;42.136;24.796;2023-02-28T09:44:36;100803.81;;;10.20;100.00
10668;BME280;5382;42.136;24.796;2023-02-28T09:47:08;100822.78;;;10.44;100.00
10668;BME280;5382;42.136;24.796;2023-02-28T09:49:41;100815.75;;;10.59;100.00
10668;BME280;5382;42.136;24.796;2023-02-28T09:52:11;100763.63;;;10.13;100.00
10668;BME280;5382;42.136;24.796;2023-02-28T09:54:39;100791.53;;;10.35;100.00
10668;BME280;5382;42.136;24.796;2023-02-28T09:57:08;100821.53;;;10.02;100.00
10668;BME280;5382;42.136;24.796;2023-02-28T09:59:49;100808.22;;;10.19;100.00
10668;BME280;5382;42.136;24.796;2023-02-28T10:02:41;100807.06;;;10.25;100.00
10668;BME280;5382;42.136;24.796;2023-02-28T10:05:15;100794.47;;;10.30;100.00
10668;BME280;5382;42.136;24.796;2023-02-28T10:07:53;100774.44;;;10.24;100.00
10668;BME280;5382;42.136;24.796;2023-02-28T10:10:27;100771.84;;;10.40;100.00
10668;BME280;5382;42.136;24.796;2023-02-28T10:12:58;100784.72;;;10.31;100.00
10668;BME280;5382;42.136;24.796;2023-02-28T10:15:27;100785.19;;;10.53;100.00
10668;BME280;5382;42.136;24.796;2023-02-28T10:17:59;100792.25;;;10.68;100.00
10668;BME280;5382;42.136;24.796;2023-02-28T10:20:30;100786.78;;;10.72;100.00
10668;BME280;5382;42.136;24.796;2023-02-28T10:23:07;100784.03;;;10.73;100.00
10668;BME280;5382;42.136;24.796;2023-02-28T10:25:38;100781.00;;;10.65;100.00
10668;BME280;5382;42.136;24.796;2023-02-28T10:28:10;100782.31;;;10.42;100.00
10668;BME280;5382;42.136;24.796;2023-02-28T10:30:40;100774.47;;;10.40;100.00
10668;BME280;5382;42.136;24.796;2023-02-28T10:33:17;100769.63;;;10.33;100.00
10668;BME280;5382;42.136;24.796;2023-02-28T10:35:46;100767.44;;;10.23;100.00
10668;BME280;5382;42.136;24.796;2023-02-28T10:38:16;100770.38;;;10.35;100.00
10668;BME280;5382;42.136;24.796;2023-02-28T10:40:43;100760.91;;;10.31;100.00
10668;BME280;5382;42.136;24.796;2023-02-28T10:43:20;100769.03;;;10.28;100.00
10668;BME280;5382;42.136;24.796;2023-02-28T10:45:57;100771.38;;;10.32;100.00
10668;BME280;5382;42.136;24.796;2023-02-28T10:48:32;100778.63;;;10.44;100.00
10668;BME280;5382;42.136;24.796;2023-02-28T10:51:01;100764.91;;;10.38;100.00
10668;BME280;5382;42.136;24.796;2023-02-28T10:53:35;100755.50;;;10.32;100.00
10668;BME280;5382;42.136;24.796;2023-02-28T10:56:04;100760.13;;;10.29;100.00
10668;BME280;5382;42.136;24.796;2023-02-28T10:58:44;100762.84;;;10.27;100.00
10668;BME280;5382;42.136;24.796;2023-02-28T11:01:14;100733.59;;;9.98;100.00
10668;BME280;5382;42.136;24.796;2023-02-28T11:03:41;100743.06;;;10.02;100.00
10668;BME280;5382;42.136;24.796;2023-02-28T11:06:15;100749.28;;;10.01;100.00
10668;BME280;5382;42.136;24.796;2023-02-28T11:08:49;100753.97;;;9.96;100.00
10668;BME280;5382;42.136;24.796;2023-02-28T11:11:17;100754.25;;;9.92;100.00
10668;BME280;5382;42.136;24.796;2023-02-28T11:13:47;100747.94;;;9.94;100.00
10668;BME280;5382;42.136;24.796;2023-02-28T11:16:16;100747.84;;;9.96;100.00
10668;BME280;5382;42.136;24.796;2023-02-28T11:18:47;100745.53;;;9.90;100.00
10668;BME280;5382;42.136;24.796;2023-02-28T11:21:19;100738.63;;;10.03;100.00
10668;BME280;5382;42.136;24.796;2023-02-28T11:23:49;100738.63;;;9.87;100.00
10668;BME280;5382;42.136;24.796;2023-02-28T11:26:35;100741.34;;;9.86;100.00
10668;BME280;5382;42.136;24.796;2023-02-28T11:29:10;100738.03;;;9.98;100.00
10668;BME280;5382;42.136;24.796;2023-02-28T11:31:37;100738.38;;;9.76;100.00
10668;BME280;5382;42.136;24.796;2023-02-28T11:34:23;100736.84;;;9.88;100.00
10668;BME280;5382;42.136;24.796;2023-02-28T11:36:52;100740.66;;;9.66;100.00
10668;BME280;5382;42.136;24.796;2023-02-28T11:39:19;100746.44;;;9.57;100.00
10668;BME280;5382;42.136;24.796;2023-02-28T11:42:07;100737.50;;;9.75;100.00
10668;BME280;5382;42.136;24.796;2023-02-28T11:44:45;100736.16;;;9.68;100.00
10668;BME280;5382;42.136;24.796;2023-02-28T11:47:25;100726.78;;;9.78;100.00
10668;BME280;5382;42.136;24.796;2023-02-28T11:50:04;100730.59;;;9.73;100.00
10668;BME280;5382;42.136;24.796;2023-02-28T11:52:43;100736.13;;;9.52;100.00
10668;BME280;5382;42.136;24.796;2023-02-28T11:55:17;100730.34;;;9.61;100.00
10668;BME280;5382;42.136;24.796;2023-02-28T11:58:09;100735.44;;;9.49;100.00
10668;BME280;5382;42.136;24.796;2023-02-28T12:00:55;100729.50;;;9.45;100.00
10668;BME280;5382;42.136;24.796;2023-02-28T12:03:33;100729.50;;;9.45;100.00
10668;BME280;5382;42.136;24.796;2023-02-28T12:06:15;100729.38;;;9.47;100.00
10668;BME280;5382;42.136;24.796;2023-02-28T12:08:52;100677.28;;;9.17;100.00
10668;BME280;5382;42.136;24.796;2023-02-28T12:11:30;100711.88;;;9.28;100.00
10668;BME280;5382;42.136;24.796;2023-02-28T12:14:07;100717.59;;;9.36;100.00
10668;BME280;5382;42.136;24.796;2023-02-28T12:16:50;100716.53;;;9.56;100.00
10668;BME280;5382;42.136;24.796;2023-02-28T12:19:21;100714.75;;;9.57;100.00
10668;BME280;5382;42.136;24.796;2023-02-28T12:22:12;100721.81;;;9.72;100.00
10668;BME280;5382;42.136;24.796;2023-02-28T12:25:19;100726.63;;;9.81;100.00
10668;BME280;5382;42.136;24.796;2023-02-28T12:27:49;100720.72;;;9.92;100.00
10668;BME280;5382;42.136;24.796;2023-02-28T12:30:22;100722.25;;;9.80;100.00
10668;BME280;5382;42.136;24.796;2023-02-28T12:32:52;100721.88;;;9.55;100.00
10668;BME280;5382;42.136;24.796;2023-02-28T12:35:24;100727.34;;;9.52;100.00
10668;BME280;5382;42.136;24.796;2023-02-28T12:37:57;100701.75;;;9.36;100.00
10668;BME280;5382;42.136;24.796;2023-02-28T12:40:41;100706.91;;;9.55;100.00
10668;BME280;5382;42.136;24.796;2023-02-28T12:43:11;100716.47;;;9.58;100.00
10668;BME280;5382;42.136;24.796;2023-02-28T12:45:42;100703.66;;;9.50;100.00
10668;BME280;5382;42.136;24.796;2023-02-28T12:48:14;100700.84;;;9.53;100.00
10668;BME280;5382;42.136;24.796;2023-02-28T12:50:42;100693.84;;;9.36;100.00
10668;BME280;5382;42.136;24.796;2023-02-28T12:53:15;100699.41;;;9.48;100.00
10668;BME280;5382;42.136;24.796;2023-02-28T12:55:48;100688.84;;;9.48;100.00
10668;BME280;5382;42.136;24.796;2023-02-28T12:58:23;100698.50;;;9.31;100.00
10668;BME280;5382;42.136;24.796;2023-02-28T13:01:28;100697.94;;;9.42;100.00
10668;BME280;5382;42.136;24.796;2023-02-28T13:04:27;100704.59;;;9.49;100.00
10668;BME280;5382;42.136;24.796;2023-02-28T13:09:56;100697.69;;;9.47;100.00
10668;BME280;5382;42.136;24.796;2023-02-28T13:12:26;100680.03;;;9.31;100.00
10668;BME280;5382;42.136;24.796;2023-02-28T13:15:04;100694.53;;;9.24;100.00